Dati Storici

Data ora Umidita' aria (%) Temperatura aria (°C) Rad globale (W/m²) Gonioanemometro (°) Tacoanemometro (m/s) Pioggia (mm)
14-06-2020 12:10 69.5 % 23.408 -72.186 1.772 0 0
14-06-2020 12:00 71.2 % 23.14 -67.371 2.31 0 0
14-06-2020 11:50 68.5 % 22.7 -69.881 2.724 0 0
14-06-2020 11:40 71.4 % 22.926 -68.406 1.821 0 0
14-06-2020 11:30 72.8 % 22.565 -67.442 0.777 0 0
14-06-2020 11:20 73.8 % 22.336 -70.987 1.972 0 0
14-06-2020 11:10 74.6 % 21.936 -67.865 3.221 0 0
14-06-2020 11:00 75.4 % 21.74 -65.515 3.692 0 0
14-06-2020 10:50 76.9 % 21.968 -66.162 1.629 0 0
14-06-2020 10:40 77 % 21.782 -69.005 2.939 0 0
14-06-2020 10:30 73.9 % 21.555 -61.962 1.766 0 0
14-06-2020 10:20 78.3 % 22.936 -68.333 1.471 0 0
14-06-2020 10:10 76.7 % 21.906 -68.607 0.319 0 0
14-06-2020 10:00 77.6 % 22.061 -67.597 1.387 0 0
14-06-2020 09:50 76 % 21.817 -74.041 2.494 0 0
14-06-2020 09:40 75.5 % 21.753 -69.306 0.878 0 0
14-06-2020 09:30 78 % 21.019 -75.018 -0.029 0 0
14-06-2020 09:20 75.7 % 21.112 -60.424 -0.029 0 0
14-06-2020 09:10 75.8 % 21.999 -80.265 -0.022 0 0
14-06-2020 09:00 79.1 % 20.389 -57.978 0.407 0 0

I dati sono presentati in modo automatico a scopo informativo. In seguito a verifica i dati possono subire modifiche o essere invalidati e non riportati negli archivi definitivi.